createdAt,value
2022-10-23T00:00:03.785Z,8.78
2022-10-23T00:01:03.746Z,8.61
2022-10-23T00:02:03.764Z,8.78
2022-10-23T00:03:03.769Z,8.78
2022-10-23T00:04:03.763Z,8.78
2022-10-23T00:05:03.746Z,8.78
2022-10-23T00:06:03.744Z,8.61
2022-10-23T00:07:03.768Z,8.78
2022-10-23T00:08:03.757Z,8.78
2022-10-23T00:09:03.738Z,8.78
2022-10-23T00:10:03.753Z,8.61
2022-10-23T00:11:03.751Z,8.78
2022-10-23T00:12:03.758Z,8.78
2022-10-23T00:13:03.746Z,8.78
2022-10-23T00:14:03.753Z,8.78
2022-10-23T00:15:03.754Z,8.78
2022-10-23T00:16:03.753Z,8.78
2022-10-23T00:17:03.747Z,8.61
2022-10-23T00:18:03.755Z,8.78
2022-10-23T00:19:03.775Z,8.61
2022-10-23T00:20:03.756Z,8.78
2022-10-23T00:21:03.759Z,8.61
2022-10-23T00:22:03.751Z,8.78
2022-10-23T00:23:03.756Z,8.61
2022-10-23T00:24:03.816Z,8.5
2022-10-23T00:25:03.753Z,8.78
2022-10-23T00:26:03.753Z,8.78
2022-10-23T00:27:03.758Z,8.94
2022-10-23T00:28:03.761Z,8.78
2022-10-23T00:29:03.758Z,8.78
2022-10-23T00:30:03.756Z,8.78
2022-10-23T00:31:03.764Z,8.61
2022-10-23T00:32:03.759Z,8.78
2022-10-23T00:33:03.769Z,8.94
2022-10-23T00:34:03.767Z,8.78
2022-10-23T00:35:03.798Z,9.06
2022-10-23T00:36:03.765Z,9.06
2022-10-23T00:37:03.759Z,8.94
2022-10-23T00:38:03.762Z,9.06
2022-10-23T00:39:03.767Z,9.22
2022-10-23T00:40:03.767Z,8.94
2022-10-23T00:41:03.764Z,8.94
2022-10-23T00:42:03.760Z,8.94
2022-10-23T00:43:03.771Z,8.78
2022-10-23T00:44:03.774Z,8.94
2022-10-23T00:45:03.768Z,8.78
2022-10-23T00:46:03.768Z,8.78
2022-10-23T00:47:03.775Z,8.78
2022-10-23T00:48:03.767Z,9.06
2022-10-23T00:49:03.823Z,8.78
2022-10-23T00:50:03.764Z,8.94
2022-10-23T00:51:03.791Z,8.61
2022-10-23T00:52:03.771Z,8.78
2022-10-23T00:53:03.763Z,8.94
2022-10-23T00:54:25.335Z,8.94
2022-10-23T00:55:03.777Z,8.61
2022-10-23T00:56:03.775Z,8.94
2022-10-23T00:57:03.770Z,8.78
2022-10-23T00:58:03.779Z,8.78
2022-10-23T00:59:03.778Z,8.78
2022-10-23T01:00:03.782Z,8.78
2022-10-23T01:01:03.804Z,8.78
2022-10-23T01:02:03.901Z,8.78
2022-10-23T01:03:03.776Z,8.78
2022-10-23T01:04:03.766Z,8.61
2022-10-23T01:05:03.770Z,8.78
2022-10-23T01:06:03.763Z,8.39
2022-10-23T01:07:03.798Z,8.78
2022-10-23T01:08:03.777Z,8.78
2022-10-23T01:09:03.770Z,8.61
2022-10-23T01:10:03.776Z,8.61
2022-10-23T01:11:03.780Z,8.5
2022-10-23T01:12:03.776Z,8.78
2022-10-23T01:13:03.785Z,8.5
2022-10-23T01:15:03.786Z,8.61
2022-10-23T01:16:03.785Z,8.61
2022-10-23T01:17:03.772Z,8.78
2022-10-23T01:18:03.780Z,8.11
2022-10-23T01:19:03.776Z,8.5
2022-10-23T01:20:03.778Z,8.39
2022-10-23T01:21:03.779Z,8.5
2022-10-23T01:22:03.779Z,8.61
2022-10-23T01:23:03.808Z,8.39
2022-10-23T01:24:03.780Z,7.94
2022-10-23T01:25:03.787Z,8.39
2022-10-23T01:26:03.784Z,8.39
2022-10-23T01:27:03.775Z,8.39
2022-10-23T01:28:03.778Z,8.39
2022-10-23T01:29:03.778Z,8.39
2022-10-23T01:30:03.781Z,8.39
2022-10-23T01:31:03.791Z,7.94
2022-10-23T01:32:03.782Z,8.39
2022-10-23T01:33:03.781Z,8.39
2022-10-23T01:34:03.789Z,7.94
2022-10-23T01:35:03.783Z,8.28
2022-10-23T01:36:03.782Z,7.94
2022-10-23T01:37:03.797Z,8.39
2022-10-23T01:38:03.792Z,8.11
2022-10-23T01:40:03.788Z,8.28
2022-10-23T01:41:03.783Z,8.28
2022-10-23T01:42:03.787Z,8.11
2022-10-23T01:43:03.793Z,7.94
2022-10-23T01:44:03.786Z,8.39
2022-10-23T01:45:03.781Z,8.39
2022-10-23T01:46:03.788Z,8.28
2022-10-23T01:47:03.782Z,8.28
2022-10-23T01:48:03.782Z,7.78
2022-10-23T01:49:03.781Z,7.94
2022-10-23T01:50:03.793Z,8.11
2022-10-23T01:51:03.793Z,8.28
2022-10-23T01:52:03.795Z,7.94
2022-10-23T01:53:03.786Z,8.28
2022-10-23T01:54:03.796Z,8.28
2022-10-23T01:55:03.812Z,8.5
2022-10-23T01:56:03.808Z,8.39
2022-10-23T01:57:03.787Z,8.39
2022-10-23T01:58:03.783Z,8.5
2022-10-23T01:59:03.798Z,8.78
2022-10-23T02:00:03.792Z,8.5
2022-10-23T02:01:03.843Z,8.5
2022-10-23T02:02:03.954Z,8.78
2022-10-23T02:03:03.807Z,8.61
2022-10-23T02:04:03.797Z,8.61
2022-10-23T02:05:03.793Z,8.61
2022-10-23T02:06:03.805Z,8.78
2022-10-23T02:07:03.793Z,8.5
2022-10-23T02:08:03.796Z,8.61
2022-10-23T02:09:03.799Z,8.5
2022-10-23T02:10:03.806Z,8.39
2022-10-23T02:11:03.819Z,8.61
2022-10-23T02:12:03.802Z,8.61
2022-10-23T02:13:03.802Z,8.61
2022-10-23T02:14:03.801Z,8.39
2022-10-23T02:15:03.803Z,8.61
2022-10-23T02:16:03.806Z,8.5
2022-10-23T02:17:03.796Z,8.61
2022-10-23T02:18:03.802Z,8.78
2022-10-23T02:19:03.804Z,8.61
2022-10-23T02:20:03.809Z,8.5
2022-10-23T02:21:03.811Z,8.5
2022-10-23T02:22:03.807Z,8.78
2022-10-23T02:23:03.807Z,8.78
2022-10-23T02:24:03.803Z,8.39
2022-10-23T02:25:03.802Z,8.5
2022-10-23T02:26:03.805Z,8.5
2022-10-23T02:27:03.826Z,8.5
2022-10-23T02:28:03.799Z,8.5
2022-10-23T02:29:06.840Z,8.61
2022-10-23T02:30:03.810Z,8.28
2022-10-23T02:31:03.818Z,8.39
2022-10-23T02:32:03.837Z,8.5
2022-10-23T02:33:03.811Z,8.78
2022-10-23T02:34:03.812Z,8.5
2022-10-23T02:35:03.816Z,8.5
2022-10-23T02:36:03.817Z,8.94
2022-10-23T02:37:03.819Z,8.39
2022-10-23T02:38:03.819Z,8.78
2022-10-23T02:39:03.819Z,8.78
2022-10-23T02:40:03.818Z,8.78
2022-10-23T02:41:03.830Z,8.61
2022-10-23T02:42:03.819Z,8.61
2022-10-23T02:43:03.840Z,8.5
2022-10-23T02:44:03.817Z,8.39
2022-10-23T02:45:03.820Z,8.39
2022-10-23T02:46:03.823Z,8.5
2022-10-23T02:47:03.822Z,8.78
2022-10-23T02:48:03.818Z,8.61
2022-10-23T02:49:03.822Z,8.78
2022-10-23T02:50:03.829Z,8.94
2022-10-23T02:51:03.812Z,8.61
2022-10-23T02:52:03.832Z,8.78
2022-10-23T02:53:03.826Z,8.61
2022-10-23T02:54:03.839Z,8.78
2022-10-23T02:55:03.826Z,8.61
2022-10-23T02:56:03.826Z,8.61
2022-10-23T02:57:03.827Z,8.5
2022-10-23T02:58:03.836Z,8.39
2022-10-23T02:59:03.852Z,8.39
2022-10-23T03:00:03.838Z,8.39
2022-10-23T03:01:03.914Z,8.5
2022-10-23T03:02:03.971Z,8.61
2022-10-23T03:03:03.835Z,8.5
2022-10-23T03:04:03.837Z,8.28
2022-10-23T03:05:03.837Z,8.61
2022-10-23T03:06:03.831Z,8.28
2022-10-23T03:07:03.828Z,8.39
2022-10-23T03:08:03.829Z,8.78
2022-10-23T03:09:03.830Z,8.78
2022-10-23T03:10:03.825Z,8.78
2022-10-23T03:11:03.839Z,8.39
2022-10-23T03:12:03.842Z,8.61
2022-10-23T03:13:03.837Z,8.61
2022-10-23T03:14:03.836Z,8.5
2022-10-23T03:15:03.856Z,8.5
2022-10-23T03:16:03.838Z,8.61
2022-10-23T03:17:03.827Z,8.61
2022-10-23T03:18:03.837Z,8.61
2022-10-23T03:19:03.886Z,8.5
2022-10-23T03:20:03.853Z,8.5
2022-10-23T03:21:03.848Z,8.5
2022-10-23T03:22:03.854Z,8.39
2022-10-23T03:23:03.845Z,8.28
2022-10-23T03:24:03.847Z,8.39
2022-10-23T03:25:03.849Z,8.28
2022-10-23T03:26:03.846Z,8.5
2022-10-23T03:27:03.842Z,8.39
2022-10-23T03:28:03.849Z,8.28
2022-10-23T03:29:03.854Z,8.5
2022-10-23T03:30:03.860Z,8.5
2022-10-23T03:31:03.884Z,8.61
2022-10-23T03:32:03.855Z,8.39
2022-10-23T03:33:03.850Z,8.5
2022-10-23T03:34:05.139Z,8.61
2022-10-23T03:35:03.854Z,8.39
2022-10-23T03:36:03.857Z,8.5
2022-10-23T03:37:03.854Z,8.5
2022-10-23T03:38:03.872Z,8.39
2022-10-23T03:39:03.851Z,8.5
2022-10-23T03:40:03.863Z,8.28
2022-10-23T03:41:03.852Z,8.39
2022-10-23T03:42:03.855Z,8.28
2022-10-23T03:43:03.858Z,8.11
2022-10-23T03:45:03.854Z,8.39
2022-10-23T03:46:03.863Z,8.28
2022-10-23T03:47:03.927Z,8.39
2022-10-23T03:48:03.864Z,8.39
2022-10-23T03:49:03.857Z,8.39
2022-10-23T03:50:03.881Z,8.39
2022-10-23T03:51:03.863Z,8.11
2022-10-23T03:52:03.874Z,8.39
2022-10-23T03:53:03.869Z,8.39
2022-10-23T03:54:03.878Z,8.39
2022-10-23T03:55:03.875Z,8.5
2022-10-23T03:56:03.885Z,8.39
2022-10-23T03:57:03.865Z,8.39
2022-10-23T03:58:03.876Z,8.5
2022-10-23T03:59:03.861Z,8.39
2022-10-23T04:00:03.880Z,8.28
2022-10-23T04:01:03.966Z,8.39
2022-10-23T04:02:03.982Z,8.28
2022-10-23T04:03:03.894Z,8.39
2022-10-23T04:04:03.872Z,8.28
2022-10-23T04:05:03.863Z,8.5
2022-10-23T04:06:03.887Z,8.39
2022-10-23T04:07:03.871Z,8.28
2022-10-23T04:08:03.874Z,8.11
2022-10-23T04:09:03.937Z,8.28
2022-10-23T04:10:03.890Z,8.11
2022-10-23T04:11:03.871Z,8.39
2022-10-23T04:12:03.879Z,8.61
2022-10-23T04:13:03.874Z,8.28
2022-10-23T04:14:03.873Z,8.5
2022-10-23T04:15:03.876Z,8.61
2022-10-23T04:16:03.874Z,8.11
2022-10-23T04:17:03.879Z,8.39
2022-10-23T04:18:03.879Z,8.39
2022-10-23T04:19:03.910Z,8.5
2022-10-23T04:20:03.882Z,8.5
2022-10-23T04:21:03.875Z,8.11
2022-10-23T04:22:03.886Z,8.28
2022-10-23T04:23:03.872Z,8.28
2022-10-23T04:24:03.876Z,8.39
2022-10-23T04:25:03.879Z,8.39
2022-10-23T04:26:03.883Z,8.39
2022-10-23T04:27:03.887Z,8.28
2022-10-23T04:28:03.888Z,8.5
2022-10-23T04:29:03.876Z,8.39
2022-10-23T04:30:03.887Z,8.28
2022-10-23T04:31:03.889Z,8.39
2022-10-23T04:32:03.879Z,8.39
2022-10-23T04:33:03.881Z,8.39
2022-10-23T04:34:03.900Z,8.39
2022-10-23T04:35:03.913Z,8.39
2022-10-23T04:36:03.882Z,8.39
2022-10-23T04:37:03.890Z,8.39
2022-10-23T04:38:03.932Z,8.28
2022-10-23T04:39:03.894Z,8.39
2022-10-23T04:40:03.898Z,8.39
2022-10-23T04:41:03.893Z,8.39
2022-10-23T04:42:03.879Z,8.28
2022-10-23T04:43:03.888Z,8.11
2022-10-23T04:44:03.888Z,8.39
2022-10-23T04:45:03.893Z,8.28
2022-10-23T04:46:03.887Z,8.39
2022-10-23T04:47:03.894Z,8.39
2022-10-23T04:48:03.898Z,8.39
2022-10-23T04:49:03.882Z,8.39
2022-10-23T04:50:03.891Z,8.39
2022-10-23T04:51:03.936Z,8.11
2022-10-23T04:52:03.906Z,8.11
2022-10-23T04:53:03.894Z,8.28
2022-10-23T04:54:03.906Z,8.39
2022-10-23T04:55:03.904Z,8.28
2022-10-23T04:56:03.890Z,8.28
2022-10-23T04:57:03.900Z,8.39
2022-10-23T04:58:03.908Z,8.28
2022-10-23T04:59:06.983Z,8.39
2022-10-23T05:00:03.894Z,8.39
2022-10-23T05:01:04.010Z,7.94
2022-10-23T05:02:03.910Z,8.11
2022-10-23T05:03:03.906Z,8.5
2022-10-23T05:04:03.907Z,8.39
2022-10-23T05:05:03.898Z,8.39
2022-10-23T05:06:03.903Z,8.28
2022-10-23T05:07:03.936Z,8.28
2022-10-23T05:08:03.912Z,8.39
2022-10-23T05:09:03.921Z,8.39
2022-10-23T05:10:03.915Z,8.39
2022-10-23T05:11:03.912Z,8.39
2022-10-23T05:12:03.912Z,8.39
2022-10-23T05:13:03.922Z,8.28
2022-10-23T05:14:03.912Z,8.39
2022-10-23T05:15:03.905Z,8.39
2022-10-23T05:16:03.914Z,8.39
2022-10-23T05:17:03.922Z,8.39
2022-10-23T05:18:03.909Z,8.39
2022-10-23T05:19:03.908Z,8.39
2022-10-23T05:20:03.924Z,8.39
2022-10-23T05:21:03.908Z,8.39
2022-10-23T05:22:03.920Z,8.39
2022-10-23T05:23:03.934Z,8.39
2022-10-23T05:24:03.914Z,8.39
2022-10-23T05:25:03.920Z,8.39
2022-10-23T05:26:03.919Z,8.11
2022-10-23T05:27:03.921Z,8.39
2022-10-23T05:28:03.918Z,8.39
2022-10-23T05:29:03.927Z,8.5
2022-10-23T05:30:03.916Z,8.39
2022-10-23T05:31:03.910Z,8.39
2022-10-23T05:32:03.913Z,8.39
2022-10-23T05:33:03.916Z,8.5
2022-10-23T05:34:03.917Z,8.5
2022-10-23T05:35:03.925Z,8.5
2022-10-23T05:36:03.921Z,8.39
2022-10-23T05:37:03.921Z,8.39
2022-10-23T05:38:03.925Z,8.39
2022-10-23T05:39:03.948Z,8.28
2022-10-23T05:40:03.924Z,8.39
2022-10-23T05:41:03.937Z,8.39
2022-10-23T05:42:03.929Z,8.39
2022-10-23T05:43:03.925Z,7.94
2022-10-23T05:44:03.923Z,8.28
2022-10-23T05:45:03.928Z,8.11
2022-10-23T05:46:03.931Z,8.11
2022-10-23T05:47:03.926Z,8.28
2022-10-23T05:48:10.552Z,8.11
2022-10-23T05:49:03.933Z,8.11
2022-10-23T05:50:03.931Z,8.11
2022-10-23T05:51:03.934Z,8.28
2022-10-23T05:52:03.928Z,8.11
2022-10-23T05:53:03.939Z,8.28
2022-10-23T05:54:03.930Z,8.11
2022-10-23T05:55:03.958Z,7.94
2022-10-23T05:56:03.920Z,7.94
2022-10-23T05:57:03.955Z,8.28
2022-10-23T05:58:03.945Z,7.94
2022-10-23T05:59:03.938Z,8.28
2022-10-23T06:00:03.928Z,8.11
2022-10-23T06:01:03.977Z,8.39
2022-10-23T06:02:04.005Z,8.39
2022-10-23T06:03:03.946Z,8.11
2022-10-23T06:04:03.931Z,8.11
2022-10-23T06:05:03.936Z,7.94
2022-10-23T06:06:03.951Z,8.11
2022-10-23T06:07:03.932Z,8.11
2022-10-23T06:08:03.941Z,8.28
2022-10-23T06:09:03.939Z,8.39
2022-10-23T06:10:03.931Z,8.39
2022-10-23T06:11:03.950Z,8.28
2022-10-23T06:12:03.945Z,8.39
2022-10-23T06:13:03.939Z,8.39
2022-10-23T06:14:03.942Z,8.39
2022-10-23T06:15:03.944Z,8.28
2022-10-23T06:16:08.425Z,8.39
2022-10-23T06:17:03.948Z,8.39
2022-10-23T06:18:03.950Z,8.39
2022-10-23T06:19:03.945Z,8.39
2022-10-23T06:20:03.937Z,7.94
2022-10-23T06:21:03.949Z,8.39
2022-10-23T06:22:03.938Z,8.39
2022-10-23T06:23:03.951Z,8.28
2022-10-23T06:24:03.940Z,8.39
2022-10-23T06:25:03.936Z,8.61
2022-10-23T06:26:03.941Z,8.5
2022-10-23T06:27:03.977Z,8.39
2022-10-23T06:28:03.936Z,8.5
2022-10-23T06:29:03.935Z,8.78
2022-10-23T06:30:03.943Z,8.5
2022-10-23T06:31:03.932Z,8.78
2022-10-23T06:32:03.938Z,8.78
2022-10-23T06:33:04.660Z,8.5
2022-10-23T06:34:03.936Z,8.78
2022-10-23T06:35:03.944Z,8.78
2022-10-23T06:36:03.949Z,8.78
2022-10-23T06:37:03.949Z,8.61
2022-10-23T06:38:03.943Z,8.61
2022-10-23T06:39:03.950Z,8.61
2022-10-23T06:40:03.938Z,8.78
2022-10-23T06:41:03.948Z,8.61
2022-10-23T06:42:03.945Z,8.78
2022-10-23T06:43:03.968Z,8.78
2022-10-23T06:44:03.944Z,8.61
2022-10-23T06:45:06.335Z,8.78
2022-10-23T06:46:03.950Z,8.78
2022-10-23T06:47:04.032Z,8.78
2022-10-23T06:48:03.948Z,8.94
2022-10-23T06:49:03.943Z,9.06
2022-10-23T06:50:03.959Z,8.78
2022-10-23T06:51:03.944Z,8.94
2022-10-23T06:52:03.952Z,8.94
2022-10-23T06:53:03.951Z,8.78
2022-10-23T06:54:03.954Z,9.06
2022-10-23T06:55:03.955Z,9.06
2022-10-23T06:56:03.956Z,8.94
2022-10-23T06:57:03.950Z,8.94
2022-10-23T06:58:03.962Z,9.06
2022-10-23T06:59:03.983Z,8.78
2022-10-23T07:00:03.954Z,9.06
2022-10-23T07:01:04.137Z,9.22
2022-10-23T07:02:03.959Z,8.94
2022-10-23T07:03:03.964Z,8.94
2022-10-23T07:04:03.968Z,8.94
2022-10-23T07:05:03.962Z,8.78
2022-10-23T07:06:03.963Z,8.94
2022-10-23T07:07:03.961Z,9.06
2022-10-23T07:08:03.970Z,8.94
2022-10-23T07:09:03.964Z,8.61
2022-10-23T07:10:04.075Z,9.06
2022-10-23T07:11:03.972Z,9.22
2022-10-23T07:12:03.966Z,8.78
2022-10-23T07:13:03.969Z,8.78
2022-10-23T07:14:03.974Z,9.06
2022-10-23T07:15:03.990Z,9.06
2022-10-23T07:16:03.967Z,8.94
2022-10-23T07:17:03.964Z,8.78
2022-10-23T07:18:03.970Z,9.06
2022-10-23T07:19:03.969Z,8.78
2022-10-23T07:20:03.975Z,9.06
2022-10-23T07:21:03.967Z,9.06
2022-10-23T07:22:03.957Z,9.22
2022-10-23T07:23:03.976Z,9.22
2022-10-23T07:24:03.969Z,9.22
2022-10-23T07:25:03.976Z,9.22
2022-10-23T07:26:03.985Z,9.67
2022-10-23T07:27:03.982Z,9.5
2022-10-23T07:28:03.990Z,9.67
2022-10-23T07:29:03.981Z,9.67
2022-10-23T07:30:03.980Z,9.5
2022-10-23T07:31:04.001Z,9.67
2022-10-23T07:32:03.984Z,9.78
2022-10-23T07:33:04.000Z,9.94
2022-10-23T07:34:03.991Z,9.78
2022-10-23T07:35:04.111Z,9.22
2022-10-23T07:36:03.987Z,9.67
2022-10-23T07:37:03.983Z,9.67
2022-10-23T07:38:03.985Z,9.67
2022-10-23T07:39:03.998Z,9.39
2022-10-23T07:40:03.981Z,9.5
2022-10-23T07:41:05.186Z,9.22
2022-10-23T07:42:03.991Z,9.06
2022-10-23T07:43:03.997Z,9.22
2022-10-23T07:44:03.994Z,8.94
2022-10-23T07:45:04.004Z,8.78
2022-10-23T07:46:03.991Z,8.78
2022-10-23T07:47:04.016Z,8.78
2022-10-23T07:48:04.003Z,9.22
2022-10-23T07:49:04.006Z,8.94
2022-10-23T07:50:03.982Z,8.78
2022-10-23T07:51:03.998Z,8.94
2022-10-23T07:53:03.990Z,8.61
2022-10-23T07:54:04.004Z,8.78
2022-10-23T07:55:03.997Z,8.78
2022-10-23T07:56:03.994Z,8.5
2022-10-23T07:57:03.993Z,8.94
2022-10-23T07:58:04.000Z,9.39
2022-10-23T07:59:04.000Z,9.67
2022-10-23T08:00:03.995Z,9.78
2022-10-23T08:01:04.052Z,9.67
2022-10-23T08:02:04.034Z,9.78
2022-10-23T08:03:04.023Z,9.78
2022-10-23T08:04:04.004Z,9.78
2022-10-23T08:05:04.017Z,10.11
2022-10-23T08:06:04.003Z,9.94
2022-10-23T08:07:04.002Z,9.94
2022-10-23T08:08:04.011Z,9.94
2022-10-23T08:09:06.139Z,9.67
2022-10-23T08:10:04.009Z,9.78
2022-10-23T08:11:04.013Z,9.78
2022-10-23T08:12:04.007Z,9.67
2022-10-23T08:13:04.010Z,10.11
2022-10-23T08:14:04.004Z,10.11
2022-10-23T08:15:04.004Z,9.94
2022-10-23T08:16:04.016Z,9.94
2022-10-23T08:17:04.020Z,9.94
2022-10-23T08:18:04.017Z,9.94
2022-10-23T08:19:04.033Z,9.94
2022-10-23T08:20:04.014Z,9.94
2022-10-23T08:21:04.019Z,10.11
2022-10-23T08:22:04.014Z,9.78
2022-10-23T08:23:04.020Z,10.11
2022-10-23T08:24:04.021Z,10.22
2022-10-23T08:25:04.013Z,10.11
2022-10-23T08:26:04.017Z,10.11
2022-10-23T08:27:04.012Z,10.11
2022-10-23T08:28:05.500Z,9.78
2022-10-23T08:29:04.020Z,9.94
2022-10-23T08:30:04.015Z,9.94
2022-10-23T08:31:04.025Z,9.67
2022-10-23T08:32:04.022Z,9.94
2022-10-23T08:33:04.020Z,10.11
2022-10-23T08:34:04.021Z,10.11
2022-10-23T08:35:04.050Z,10.11
2022-10-23T08:36:04.022Z,10.11
2022-10-23T08:37:04.017Z,9.94
2022-10-23T08:38:04.023Z,9.67
2022-10-23T08:39:04.032Z,9.94
2022-10-23T08:40:04.014Z,9.94
2022-10-23T08:41:04.028Z,9.94
2022-10-23T08:42:04.053Z,9.5
2022-10-23T08:43:04.016Z,9.39
2022-10-23T08:44:04.029Z,9.78
2022-10-23T08:45:04.037Z,9.94
2022-10-23T08:46:05.087Z,9.94
2022-10-23T08:47:04.027Z,9.78
2022-10-23T08:48:04.031Z,10.11
2022-10-23T08:49:04.034Z,9.94
2022-10-23T08:50:04.032Z,10.11
2022-10-23T08:51:04.085Z,10.11
2022-10-23T08:52:04.038Z,9.78
2022-10-23T08:53:04.037Z,9.67
2022-10-23T08:54:04.037Z,9.94
2022-10-23T08:55:04.044Z,9.67
2022-10-23T08:56:04.036Z,9.78
2022-10-23T08:57:04.040Z,9.78
2022-10-23T08:58:04.042Z,10.11
2022-10-23T08:59:04.053Z,10.11
2022-10-23T09:00:04.041Z,10.56
2022-10-23T09:01:04.175Z,10.67
2022-10-23T09:02:04.148Z,10.56
2022-10-23T09:03:04.043Z,10.39
2022-10-23T09:04:04.049Z,10.67
2022-10-23T09:05:04.045Z,10.44
2022-10-23T09:06:04.045Z,10.67
2022-10-23T09:07:04.105Z,10.83
2022-10-23T09:08:04.051Z,11
2022-10-23T09:09:04.059Z,11
2022-10-23T09:10:04.045Z,10.67
2022-10-23T09:11:04.046Z,11
2022-10-23T09:12:04.061Z,10.56
2022-10-23T09:13:04.057Z,10.56
2022-10-23T09:14:04.057Z,10.11
2022-10-23T09:15:04.047Z,10.39
2022-10-23T09:16:04.043Z,10.56
2022-10-23T09:17:04.136Z,10.56
2022-10-23T09:18:04.055Z,11
2022-10-23T09:19:05.212Z,11
2022-10-23T09:20:04.057Z,11.28
2022-10-23T09:21:04.055Z,11.44
2022-10-23T09:22:04.054Z,11.44
2022-10-23T09:23:04.080Z,11.11
2022-10-23T09:24:04.064Z,11.83
2022-10-23T09:25:04.059Z,11.83
2022-10-23T09:26:04.056Z,11.83
2022-10-23T09:28:05.456Z,11.72
2022-10-23T09:29:04.065Z,11.72
2022-10-23T09:30:04.076Z,11.61
2022-10-23T09:31:04.054Z,11.61
2022-10-23T09:32:04.072Z,11.61
2022-10-23T09:33:04.066Z,11.72
2022-10-23T09:34:04.310Z,11.72
2022-10-23T09:35:04.068Z,11.61
2022-10-23T09:36:04.068Z,11.83
2022-10-23T09:37:04.092Z,11.61
2022-10-23T09:38:04.077Z,11.61
2022-10-23T09:39:04.094Z,11.28
2022-10-23T09:40:04.070Z,11.83
2022-10-23T09:41:04.073Z,11.83
2022-10-23T09:42:04.077Z,11.83
2022-10-23T09:43:04.084Z,11.28
2022-10-23T09:44:04.076Z,11.44
2022-10-23T09:45:04.073Z,11.44
2022-10-23T09:46:04.074Z,11.72
2022-10-23T09:47:04.089Z,11.94
2022-10-23T09:48:04.079Z,11.83
2022-10-23T09:49:05.669Z,11.94
2022-10-23T09:50:04.093Z,11.94
2022-10-23T09:51:04.083Z,11.83
2022-10-23T09:52:04.088Z,11.61
2022-10-23T09:53:04.084Z,11.83
2022-10-23T09:54:04.088Z,11.94
2022-10-23T09:55:04.100Z,11.83
2022-10-23T09:56:04.098Z,11.94
2022-10-23T09:57:04.091Z,11.72
2022-10-23T09:58:04.084Z,11.83
2022-10-23T09:59:04.090Z,12.11
2022-10-23T10:00:04.083Z,12.56
2022-10-23T10:01:04.177Z,12.11
2022-10-23T10:02:04.221Z,12.44
2022-10-23T10:03:04.098Z,12.56
2022-10-23T10:04:04.086Z,13.17
2022-10-23T10:05:04.086Z,12.89
2022-10-23T10:06:04.094Z,12.72
2022-10-23T10:07:04.086Z,12.72
2022-10-23T10:08:04.102Z,12.56
2022-10-23T10:09:04.097Z,12.44
2022-10-23T10:10:04.091Z,12.72
2022-10-23T10:11:04.113Z,13.06
2022-10-23T10:12:04.100Z,12.72
2022-10-23T10:13:04.094Z,12.72
2022-10-23T10:14:04.101Z,12.56
2022-10-23T10:15:04.097Z,12.11
2022-10-23T10:16:04.094Z,11.72
2022-10-23T10:17:04.096Z,11.44
2022-10-23T10:18:04.098Z,11.83
2022-10-23T10:19:04.105Z,12.11
2022-10-23T10:20:06.679Z,12.28
2022-10-23T10:21:04.103Z,11.61
2022-10-23T10:22:04.103Z,11.61
2022-10-23T10:23:04.097Z,11.83
2022-10-23T10:24:04.099Z,11.44
2022-10-23T10:25:04.094Z,11.44
2022-10-23T10:26:04.109Z,12.11
2022-10-23T10:27:04.136Z,12.44
2022-10-23T10:28:04.103Z,12.72
2022-10-23T10:29:04.103Z,12.28
2022-10-23T10:30:04.108Z,12.72
2022-10-23T10:31:04.094Z,13.06
2022-10-23T10:32:04.153Z,13.5
2022-10-23T10:33:04.109Z,13.33
2022-10-23T10:34:04.095Z,13.17
2022-10-23T10:35:04.106Z,13.67
2022-10-23T10:36:04.101Z,13.67
2022-10-23T10:37:04.099Z,13.17
2022-10-23T10:38:04.099Z,12.72
2022-10-23T10:39:04.102Z,11.89
2022-10-23T10:40:04.111Z,12.28
2022-10-23T10:41:04.107Z,11.94
2022-10-23T10:42:04.108Z,12.56
2022-10-23T10:43:04.124Z,12.56
2022-10-23T10:44:04.109Z,13.17
2022-10-23T10:45:04.106Z,13.17
2022-10-23T10:46:04.147Z,13.67
2022-10-23T10:47:04.106Z,13.5
2022-10-23T10:48:04.103Z,13.5
2022-10-23T10:49:04.099Z,13.11
2022-10-23T10:50:04.107Z,13.17
2022-10-23T10:51:04.100Z,12.78
2022-10-23T10:52:04.114Z,12.17
2022-10-23T10:53:04.104Z,11.78
2022-10-23T10:54:04.109Z,11.78
2022-10-23T10:55:04.106Z,12.5
2022-10-23T10:56:04.195Z,12.5
2022-10-23T10:57:04.109Z,12.94
2022-10-23T10:58:04.099Z,12.78
2022-10-23T10:59:04.126Z,13.83
2022-10-23T11:00:04.114Z,14.28
2022-10-23T11:01:04.219Z,13.39
2022-10-23T11:02:04.309Z,13.67
2022-10-23T11:03:04.108Z,14.11
2022-10-23T11:04:04.105Z,13.39
2022-10-23T11:05:04.100Z,13.11
2022-10-23T11:06:04.154Z,12.94
2022-10-23T11:07:04.112Z,12.61
2022-10-23T11:08:04.112Z,12.5
2022-10-23T11:09:19.616Z,12.94
2022-10-23T11:10:04.126Z,13.39
2022-10-23T11:11:04.120Z,13.56
2022-10-23T11:12:04.109Z,13.83
2022-10-23T11:13:04.103Z,13.67
2022-10-23T11:14:04.098Z,13.83
2022-10-23T11:15:04.133Z,13.11
2022-10-23T11:16:04.113Z,13.22
2022-10-23T11:17:04.106Z,13.39
2022-10-23T11:18:04.110Z,13.39
2022-10-23T11:19:04.120Z,13.22
2022-10-23T11:20:04.113Z,12.78
2022-10-23T11:21:04.110Z,12.94
2022-10-23T11:22:04.109Z,12.17
2022-10-23T11:23:04.111Z,12.17
2022-10-23T11:24:04.158Z,12.17
2022-10-23T11:25:04.127Z,12.17
2022-10-23T11:26:04.113Z,12.17
2022-10-23T11:27:04.109Z,12.5
2022-10-23T11:28:06.250Z,12.5
2022-10-23T11:29:04.107Z,12.17
2022-10-23T11:30:04.105Z,12.5
2022-10-23T11:31:06.143Z,12.33
2022-10-23T11:32:04.114Z,12.61
2022-10-23T11:33:04.114Z,12.61
2022-10-23T11:34:04.110Z,12.78
2022-10-23T11:35:04.115Z,12.5
2022-10-23T11:36:04.111Z,12.61
2022-10-23T11:37:04.113Z,12.5
2022-10-23T11:38:04.116Z,12.61
2022-10-23T11:39:04.113Z,12.78
2022-10-23T11:40:04.114Z,12.61
2022-10-23T11:41:04.109Z,12.94
2022-10-23T11:42:04.123Z,13.39
2022-10-23T11:43:04.104Z,13.11
2022-10-23T11:44:04.126Z,13.39
2022-10-23T11:45:04.117Z,14
2022-10-23T11:46:04.117Z,14.28
2022-10-23T11:47:04.139Z,14.28
2022-10-23T11:48:04.123Z,14.11
2022-10-23T11:49:04.155Z,14.44
2022-10-23T11:50:04.121Z,14.11
2022-10-23T11:51:04.336Z,14.28
2022-10-23T11:52:04.120Z,14.28
2022-10-23T11:53:17.023Z,14
2022-10-23T11:54:04.120Z,14
2022-10-23T11:55:04.128Z,13.67
2022-10-23T11:56:04.125Z,13.22
2022-10-23T11:57:04.131Z,12.94
2022-10-23T11:58:04.128Z,13.39
2022-10-23T11:59:04.131Z,13.83
2022-10-23T12:00:04.125Z,14.61
2022-10-23T12:01:04.225Z,14.61
2022-10-23T12:02:04.224Z,14.78
2022-10-23T12:03:04.255Z,14.89
2022-10-23T12:04:04.131Z,15.17
2022-10-23T12:05:04.120Z,15.17
2022-10-23T12:06:04.130Z,15.28
2022-10-23T12:07:04.135Z,15.28
2022-10-23T12:08:04.141Z,15.06
2022-10-23T12:09:04.129Z,15.61
2022-10-23T12:10:04.133Z,15.61
2022-10-23T12:11:04.144Z,15.17
2022-10-23T12:12:04.133Z,15.28
2022-10-23T12:13:04.134Z,15.61
2022-10-23T12:14:04.178Z,15.78
2022-10-23T12:15:04.141Z,16.06
2022-10-23T12:16:04.142Z,16.56
2022-10-23T12:17:04.141Z,16.39
2022-10-23T12:18:04.137Z,16.56
2022-10-23T12:19:04.163Z,16.72
2022-10-23T12:20:04.144Z,16.39
2022-10-23T12:21:04.150Z,15.61
2022-10-23T12:22:04.144Z,15.61
2022-10-23T12:23:04.142Z,16.06
2022-10-23T12:24:04.152Z,16.56
2022-10-23T12:25:04.137Z,16.56
2022-10-23T12:26:04.143Z,16.22
2022-10-23T12:27:04.151Z,16.06
2022-10-23T12:28:04.145Z,15.89
2022-10-23T12:29:04.148Z,16.06
2022-10-23T12:30:04.144Z,15.78
2022-10-23T12:31:04.148Z,16.56
2022-10-23T12:32:04.148Z,17
2022-10-23T12:33:04.152Z,17.17
2022-10-23T12:34:04.142Z,16.56
2022-10-23T12:35:04.187Z,16.06
2022-10-23T12:36:04.148Z,16.89
2022-10-23T12:37:04.147Z,16.89
2022-10-23T12:38:04.154Z,17.17
2022-10-23T12:39:04.156Z,17.17
2022-10-23T12:40:04.156Z,17.5
2022-10-23T12:41:04.152Z,17
2022-10-23T12:42:04.151Z,17.5
2022-10-23T12:43:04.152Z,17.5
2022-10-23T12:44:04.153Z,17.33
2022-10-23T12:45:04.155Z,17
2022-10-23T12:46:04.153Z,16.56
2022-10-23T12:47:04.156Z,16.56
2022-10-23T12:48:04.153Z,16.22
2022-10-23T12:49:04.153Z,16.22
2022-10-23T12:50:04.167Z,16.89
2022-10-23T12:51:04.176Z,16.89
2022-10-23T12:52:04.142Z,16.22
2022-10-23T12:53:04.145Z,16.22
2022-10-23T12:54:04.157Z,15.89
2022-10-23T12:55:04.152Z,16.56
2022-10-23T12:56:04.163Z,16.39
2022-10-23T12:57:04.156Z,16.56
2022-10-23T12:58:04.151Z,16.06
2022-10-23T12:59:04.158Z,16.39
2022-10-23T13:00:04.155Z,15.89
2022-10-23T13:01:04.307Z,16.06
2022-10-23T13:02:04.260Z,15.17
2022-10-23T13:03:04.155Z,15.06
2022-10-23T13:04:04.158Z,15.06
2022-10-23T13:05:04.157Z,15.17
2022-10-23T13:06:04.176Z,15.61
2022-10-23T13:07:04.208Z,16.06
2022-10-23T13:08:04.165Z,15.89
2022-10-23T13:09:04.170Z,15.78
2022-10-23T13:10:04.174Z,15.89
2022-10-23T13:11:04.191Z,15.78
2022-10-23T13:12:04.176Z,15.61
2022-10-23T13:13:04.367Z,15.78
2022-10-23T13:14:04.184Z,15.61
2022-10-23T13:15:04.164Z,15.61
2022-10-23T13:16:04.157Z,15.61
2022-10-23T13:17:04.164Z,15.44